createdAt,value
2023-03-11T00:01:53.752Z,23.33
2023-03-11T00:04:22.372Z,20.03
2023-03-11T00:06:50.941Z,10.30
2023-03-11T00:09:19.428Z,2.93
2023-03-11T00:11:47.360Z,3.07
2023-03-11T00:14:15.192Z,3.00
2023-03-11T00:16:43.169Z,2.00
2023-03-11T00:19:11.942Z,2.10
2023-03-11T00:21:39.896Z,5.17
2023-03-11T00:24:09.105Z,3.20
2023-03-11T00:26:37.133Z,1.97
2023-03-11T00:29:05.753Z,2.37
2023-03-11T00:31:34.316Z,1.80
2023-03-11T00:34:02.884Z,3.63
2023-03-11T00:36:33.924Z,3.03
2023-03-11T00:39:03.863Z,1.93
2023-03-11T00:41:32.518Z,5.07
2023-03-11T00:44:01.080Z,2.93
2023-03-11T00:46:31.391Z,2.03
2023-03-11T00:48:59.930Z,2.10
2023-03-11T00:51:28.231Z,1.97
2023-03-11T00:53:56.204Z,1.63
2023-03-11T00:56:24.074Z,2.47
2023-03-11T00:58:52.544Z,2.20
2023-03-11T01:01:21.873Z,1.73
2023-03-11T01:03:50.631Z,2.63
2023-03-11T01:06:18.998Z,2.27
2023-03-11T01:08:46.928Z,1.73
2023-03-11T01:11:15.601Z,2.47
2023-03-11T01:13:43.669Z,1.57
2023-03-11T01:16:12.350Z,1.93
2023-03-11T01:18:40.900Z,1.10
2023-03-11T01:21:08.817Z,1.30
2023-03-11T01:23:37.377Z,3.67
2023-03-11T01:26:05.926Z,2.37
2023-03-11T01:28:34.318Z,1.33
2023-03-11T01:31:03.177Z,4.10
2023-03-11T01:33:31.948Z,2.93
2023-03-11T01:35:59.951Z,4.53
2023-03-11T01:38:28.441Z,4.40
2023-03-11T01:40:57.071Z,4.10
2023-03-11T01:43:41.803Z,3.50
2023-03-11T01:46:14.750Z,4.23
2023-03-11T01:48:45.344Z,4.67
2023-03-11T01:51:13.856Z,7.40
2023-03-11T01:53:42.470Z,5.60
2023-03-11T01:56:11.250Z,6.17
2023-03-11T01:58:40.748Z,6.00
2023-03-11T02:01:09.463Z,6.63
2023-03-11T02:03:38.695Z,5.83
2023-03-11T02:06:14.593Z,6.23
2023-03-11T02:08:43.607Z,4.30
2023-03-11T02:11:13.322Z,4.90
2023-03-11T02:13:42.945Z,4.40
2023-03-11T02:18:38.443Z,2.80
2023-03-11T02:21:20.441Z,2.83
2023-03-11T02:24:05.170Z,2.97
2023-03-11T02:26:37.467Z,5.03
2023-03-11T02:29:07.818Z,3.03
2023-03-11T02:31:37.797Z,5.73
2023-03-11T02:34:07.846Z,4.37
2023-03-11T02:36:40.630Z,6.03
2023-03-11T02:39:08.909Z,2.83
2023-03-11T02:41:38.590Z,5.57
2023-03-11T02:44:08.743Z,4.63
2023-03-11T02:46:38.411Z,3.80
2023-03-11T02:49:07.733Z,3.87
2023-03-11T02:51:36.235Z,5.60
2023-03-11T02:54:05.412Z,5.23
2023-03-11T02:56:33.452Z,5.97
2023-03-11T02:59:01.508Z,6.63
2023-03-11T03:01:30.062Z,6.43
2023-03-11T03:03:59.070Z,7.57
2023-03-11T03:06:29.181Z,6.20
2023-03-11T03:08:57.681Z,17.80
2023-03-11T03:11:26.012Z,13.83
2023-03-11T03:13:54.313Z,29.30
2023-03-11T03:16:22.753Z,35.77
2023-03-11T03:18:52.190Z,21.93
2023-03-11T03:21:20.670Z,19.37
2023-03-11T03:23:49.248Z,14.67
2023-03-11T03:26:17.324Z,13.00
2023-03-11T03:28:45.287Z,10.20
2023-03-11T03:31:13.981Z,8.07
2023-03-11T03:33:42.480Z,10.43
2023-03-11T03:36:11.904Z,10.33
2023-03-11T03:38:40.356Z,8.20
2023-03-11T03:41:08.701Z,8.43
2023-03-11T03:43:37.117Z,9.93
2023-03-11T03:46:06.518Z,8.93
2023-03-11T03:48:34.452Z,9.23
2023-03-11T03:51:06.534Z,7.77
2023-03-11T03:53:35.756Z,7.53
2023-03-11T03:56:05.644Z,9.87
2023-03-11T03:58:33.490Z,8.93
2023-03-11T04:01:01.607Z,7.90
2023-03-11T04:03:29.488Z,7.80
2023-03-11T04:05:58.812Z,9.17
2023-03-11T04:08:26.686Z,10.33
2023-03-11T04:10:59.042Z,8.90
2023-03-11T04:13:26.930Z,8.60
2023-03-11T04:15:55.450Z,9.03
2023-03-11T04:18:24.046Z,7.60
2023-03-11T04:20:52.582Z,7.30
2023-03-11T04:23:20.478Z,6.30
2023-03-11T04:25:48.368Z,8.20
2023-03-11T04:28:16.963Z,6.93
2023-03-11T04:30:45.695Z,7.17
2023-03-11T04:33:13.847Z,8.43
2023-03-11T04:35:41.961Z,12.23
2023-03-11T04:38:10.649Z,8.67
2023-03-11T04:40:39.671Z,53.93
2023-03-11T04:43:07.555Z,25.67
2023-03-11T04:45:37.222Z,21.80
2023-03-11T04:50:32.634Z,12.50
2023-03-11T04:53:01.215Z,10.47
2023-03-11T04:55:29.266Z,14.47
2023-03-11T04:57:57.704Z,11.50
2023-03-11T05:00:26.308Z,8.87
2023-03-11T05:02:55.014Z,9.80
2023-03-11T05:05:23.337Z,9.27
2023-03-11T05:07:51.900Z,9.43
2023-03-11T05:10:22.164Z,12.90
2023-03-11T05:12:53.578Z,8.80
2023-03-11T05:15:22.074Z,8.60
2023-03-11T05:17:50.185Z,9.90
2023-03-11T05:20:18.304Z,4.00
2023-03-11T05:22:47.045Z,6.10
2023-03-11T05:25:15.629Z,5.70
2023-03-11T05:27:44.331Z,5.40
2023-03-11T05:30:12.942Z,8.90
2023-03-11T05:32:40.788Z,8.50
2023-03-11T05:35:09.733Z,6.70
2023-03-11T05:37:39.330Z,4.90
2023-03-11T05:40:08.674Z,6.57
2023-03-11T05:42:36.620Z,1.40
2023-03-11T05:45:05.193Z,1.50
2023-03-11T05:47:33.667Z,2.10
2023-03-11T05:50:01.994Z,2.67
2023-03-11T05:52:31.562Z,4.27
2023-03-11T05:57:26.878Z,2.52
2023-03-11T05:59:55.371Z,2.57
2023-03-11T06:02:24.047Z,2.77
2023-03-11T06:04:52.659Z,2.17
2023-03-11T06:07:20.893Z,2.97
2023-03-11T06:09:50.838Z,3.60
2023-03-11T06:12:19.776Z,3.50
2023-03-11T06:14:48.200Z,6.07
2023-03-11T06:17:16.687Z,9.13
2023-03-11T06:19:44.623Z,5.17
2023-03-11T06:22:13.023Z,4.87
2023-03-11T06:24:41.035Z,5.67
2023-03-11T06:27:10.004Z,5.20
2023-03-11T06:29:38.373Z,4.63
2023-03-11T06:32:07.194Z,3.57
2023-03-11T06:34:35.860Z,2.03
2023-03-11T06:37:04.762Z,2.23
2023-03-11T06:39:33.406Z,1.43
2023-03-11T06:42:01.930Z,2.60
2023-03-11T06:44:30.385Z,1.60
2023-03-11T06:46:58.963Z,3.90
2023-03-11T06:49:27.378Z,2.77
2023-03-11T06:51:56.159Z,1.73
2023-03-11T06:54:24.186Z,4.37
2023-03-11T06:56:52.556Z,2.57
2023-03-11T06:59:22.120Z,3.93
2023-03-11T07:01:50.566Z,2.83
2023-03-11T07:04:19.201Z,3.20
2023-03-11T07:06:47.739Z,3.77
2023-03-11T07:09:16.024Z,4.60
2023-03-11T07:11:44.590Z,3.80
2023-03-11T07:14:13.253Z,5.90
2023-03-11T07:16:42.051Z,4.23
2023-03-11T07:19:11.188Z,5.03
2023-03-11T07:21:39.758Z,4.13
2023-03-11T07:24:08.521Z,4.97
2023-03-11T07:26:36.647Z,4.37
2023-03-11T07:29:05.080Z,4.20
2023-03-11T07:31:34.546Z,4.53
2023-03-11T07:34:04.535Z,3.60
2023-03-11T07:36:33.502Z,3.70
2023-03-11T07:39:04.635Z,5.10
2023-03-11T07:41:34.049Z,4.97
2023-03-11T07:44:03.145Z,3.70
2023-03-11T07:46:31.397Z,4.67
2023-03-11T07:48:59.912Z,4.43
2023-03-11T07:51:29.309Z,7.30
2023-03-11T07:56:25.301Z,2.80
2023-03-11T07:58:54.299Z,3.73
2023-03-11T08:01:23.695Z,3.90
2023-03-11T08:03:55.064Z,2.57
2023-03-11T08:06:24.375Z,2.83
2023-03-11T08:11:21.887Z,1.10
2023-03-11T08:13:50.210Z,1.83
2023-03-11T08:16:20.209Z,1.10
2023-03-11T08:18:49.594Z,2.40
2023-03-11T08:21:19.120Z,2.07
2023-03-11T08:23:47.032Z,1.60
2023-03-11T08:26:16.856Z,1.73
2023-03-11T08:28:44.970Z,1.80
2023-03-11T08:31:15.148Z,1.17
2023-03-11T08:33:43.936Z,1.60
2023-03-11T08:36:12.568Z,3.47
2023-03-11T08:38:41.113Z,2.07
2023-03-11T08:41:09.901Z,1.40
2023-03-11T08:43:38.276Z,1.20
2023-03-11T08:46:07.430Z,1.50
2023-03-11T08:48:37.507Z,2.03
2023-03-11T08:51:13.451Z,1.83
2023-03-11T08:53:41.862Z,2.27
2023-03-11T08:56:10.627Z,2.87
2023-03-11T08:58:38.526Z,4.17
2023-03-11T09:01:07.877Z,2.23
2023-03-11T09:03:35.994Z,1.63
2023-03-11T09:06:06.079Z,2.23
2023-03-11T09:08:34.861Z,2.00
2023-03-11T09:11:02.965Z,1.57
2023-03-11T09:13:31.304Z,1.87
2023-03-11T09:15:59.835Z,2.23
2023-03-11T09:18:29.919Z,2.13
2023-03-11T09:20:59.700Z,2.57
2023-03-11T09:23:28.208Z,1.87
2023-03-11T09:25:56.578Z,2.27
2023-03-11T09:28:25.491Z,1.07
2023-03-11T09:30:53.682Z,2.33
2023-03-11T09:33:22.122Z,1.80
2023-03-11T09:35:50.530Z,2.60
2023-03-11T09:38:18.776Z,1.20
2023-03-11T09:41:01.037Z,1.13
2023-03-11T09:43:42.992Z,1.90
2023-03-11T09:46:27.732Z,2.87
2023-03-11T09:48:57.460Z,2.80
2023-03-11T09:51:32.708Z,1.27
2023-03-11T09:54:02.638Z,2.40
2023-03-11T09:56:32.324Z,2.97
2023-03-11T09:59:05.000Z,1.67
2023-03-11T10:01:37.495Z,1.67
2023-03-11T10:04:07.732Z,3.60
2023-03-11T10:06:36.637Z,2.53
2023-03-11T10:09:15.680Z,2.63
2023-03-11T10:11:54.271Z,1.20
2023-03-11T10:14:24.275Z,1.87
2023-03-11T10:17:10.353Z,3.17
2023-03-11T10:19:46.333Z,2.20
2023-03-11T10:22:34.793Z,3.10
2023-03-11T10:25:10.960Z,2.67
2023-03-11T10:27:42.015Z,3.40
2023-03-11T10:30:17.880Z,1.70
2023-03-11T10:32:47.929Z,3.33
2023-03-11T10:35:26.761Z,4.33
2023-03-11T10:37:56.148Z,0.93
2023-03-11T10:40:28.677Z,1.67
2023-03-11T10:42:58.797Z,1.60
2023-03-11T10:45:28.016Z,1.50
2023-03-11T10:50:23.008Z,1.72
2023-03-11T10:53:07.762Z,1.47
2023-03-11T10:55:36.853Z,1.20
2023-03-11T10:58:06.076Z,3.67
2023-03-11T11:00:34.956Z,4.37
2023-03-11T11:03:05.177Z,1.60
2023-03-11T11:05:35.368Z,2.20
2023-03-11T11:08:10.687Z,2.40
2023-03-11T11:10:39.296Z,4.53
2023-03-11T11:13:09.001Z,2.73
2023-03-11T11:15:38.852Z,4.07
2023-03-11T11:18:23.339Z,4.90
2023-03-11T11:20:59.779Z,3.93
2023-03-11T11:23:29.802Z,4.07
2023-03-11T11:26:02.542Z,2.70
2023-03-11T11:28:31.046Z,2.13
2023-03-11T11:31:04.296Z,4.33
2023-03-11T11:33:33.937Z,1.50
2023-03-11T11:36:06.272Z,2.43
2023-03-11T11:38:34.833Z,3.03
2023-03-11T11:41:05.652Z,4.60
2023-03-11T11:43:35.338Z,1.33
2023-03-11T11:46:04.830Z,2.87
2023-03-11T11:48:37.436Z,2.43
2023-03-11T11:51:08.975Z,2.07
2023-03-11T11:53:41.650Z,1.53
2023-03-11T11:56:10.027Z,2.10
2023-03-11T11:58:39.231Z,2.50
2023-03-11T12:01:17.754Z,1.97
2023-03-11T12:03:50.413Z,2.47
2023-03-11T12:06:20.463Z,1.30
2023-03-11T12:08:49.912Z,2.50
2023-03-11T12:11:19.308Z,2.87
2023-03-11T12:13:49.794Z,1.57
2023-03-11T12:16:37.824Z,2.27
2023-03-11T12:19:07.749Z,1.83
2023-03-11T12:21:37.850Z,3.33
2023-03-11T12:24:10.763Z,3.07
2023-03-11T12:26:40.666Z,3.67
2023-03-11T12:29:22.856Z,1.93
2023-03-11T12:31:51.731Z,4.30
2023-03-11T12:34:21.812Z,1.73
2023-03-11T12:36:50.118Z,2.40
2023-03-11T12:39:29.413Z,1.80
2023-03-11T12:42:14.646Z,2.87
2023-03-11T12:44:43.360Z,3.40
2023-03-11T12:47:13.588Z,3.23
2023-03-11T12:49:44.108Z,4.40
2023-03-11T12:52:16.714Z,3.60
2023-03-11T12:54:46.870Z,2.50
2023-03-11T12:57:19.792Z,4.80
2023-03-11T12:59:52.732Z,1.43
2023-03-11T13:02:40.681Z,1.60
2023-03-11T13:05:23.569Z,1.80
2023-03-11T13:07:56.145Z,2.30
2023-03-11T13:10:31.746Z,2.50
2023-03-11T13:13:00.591Z,2.67
2023-03-11T13:15:31.496Z,1.37
2023-03-11T13:18:04.059Z,2.03
2023-03-11T13:20:45.318Z,3.07
2023-03-11T13:23:15.134Z,1.87
2023-03-11T13:25:44.770Z,3.10
2023-03-11T13:28:21.015Z,2.07
2023-03-11T13:31:07.536Z,2.23
2023-03-11T13:33:40.625Z,2.40
2023-03-11T13:36:13.496Z,5.90
2023-03-11T13:38:52.753Z,2.43
2023-03-11T13:41:22.654Z,3.30
2023-03-11T13:43:52.160Z,2.87
2023-03-11T13:46:31.082Z,3.13
2023-03-11T13:49:00.988Z,2.23
2023-03-11T13:51:30.988Z,3.20
2023-03-11T13:54:01.086Z,2.87
2023-03-11T13:56:31.000Z,2.73
2023-03-11T13:59:18.329Z,2.40
2023-03-11T14:01:53.619Z,1.80
2023-03-11T14:04:23.620Z,1.50
2023-03-11T14:06:53.126Z,1.80
2023-03-11T14:11:49.242Z,3.58
2023-03-11T14:16:44.788Z,3.62
2023-03-11T14:19:20.652Z,3.10
2023-03-11T14:21:50.883Z,3.30
2023-03-11T14:24:24.167Z,2.37
2023-03-11T14:26:56.145Z,2.03
2023-03-11T14:29:37.742Z,3.67
2023-03-11T14:32:24.300Z,4.33
2023-03-11T14:34:52.817Z,2.70
2023-03-11T14:37:28.195Z,3.43
2023-03-11T14:39:56.671Z,4.07
2023-03-11T14:42:27.155Z,2.07
2023-03-11T14:44:57.215Z,3.17
2023-03-11T14:47:36.424Z,2.93
2023-03-11T14:50:06.702Z,5.37
2023-03-11T14:52:39.153Z,3.60
2023-03-11T14:55:09.261Z,3.77
2023-03-11T14:57:39.171Z,6.53
2023-03-11T15:00:09.204Z,9.00
2023-03-11T15:02:42.487Z,9.27
2023-03-11T15:05:21.302Z,5.77
2023-03-11T15:07:50.895Z,8.03
2023-03-11T15:10:18.953Z,4.47
2023-03-11T15:12:47.555Z,6.13
2023-03-11T15:15:24.031Z,5.33
2023-03-11T15:17:57.188Z,2.33
2023-03-11T15:20:26.416Z,3.67
2023-03-11T15:22:57.696Z,2.67
2023-03-11T15:25:26.140Z,2.87
2023-03-11T15:27:54.672Z,4.50
2023-03-11T15:30:30.391Z,4.63
2023-03-11T15:32:59.680Z,7.03
2023-03-11T15:35:29.923Z,5.57
2023-03-11T15:38:20.905Z,7.13
2023-03-11T15:40:53.526Z,6.77
2023-03-11T15:43:23.881Z,5.37
2023-03-11T15:45:54.342Z,4.23
2023-03-11T15:48:23.470Z,6.63
2023-03-11T15:50:54.746Z,5.13
2023-03-11T15:53:24.717Z,7.43
2023-03-11T15:55:53.896Z,7.73
2023-03-11T15:58:21.818Z,7.30
2023-03-11T16:00:54.144Z,5.87
2023-03-11T16:03:22.740Z,9.60
2023-03-11T16:05:51.544Z,6.93
2023-03-11T16:08:19.986Z,7.17
2023-03-11T16:10:48.463Z,6.07
2023-03-11T16:13:17.069Z,6.63
2023-03-11T16:15:47.358Z,7.00
2023-03-11T16:18:15.881Z,7.87
2023-03-11T16:20:45.190Z,5.93
2023-03-11T16:23:23.829Z,6.83
2023-03-11T16:25:53.516Z,6.20
2023-03-11T16:28:21.457Z,6.47
2023-03-11T16:30:51.059Z,4.27
2023-03-11T16:35:47.236Z,4.90
2023-03-11T16:38:17.814Z,4.60
2023-03-11T16:40:46.650Z,5.30
2023-03-11T16:43:15.933Z,7.37
2023-03-11T16:45:44.413Z,6.80
2023-03-11T16:48:12.469Z,4.07
2023-03-11T16:50:41.022Z,3.70
2023-03-11T16:53:09.066Z,3.77
2023-03-11T16:55:38.313Z,4.87
2023-03-11T16:58:07.177Z,3.30
2023-03-11T17:00:35.022Z,2.77
2023-03-11T17:03:04.326Z,2.43
2023-03-11T17:05:32.677Z,3.60
2023-03-11T17:08:02.219Z,4.67
2023-03-11T17:10:30.952Z,4.30
2023-03-11T17:12:59.029Z,4.57
2023-03-11T17:15:26.980Z,3.83
2023-03-11T17:17:55.419Z,4.53
2023-03-11T17:20:23.373Z,3.07
2023-03-11T17:22:53.093Z,6.57
2023-03-11T17:27:48.331Z,6.53
2023-03-11T17:30:27.159Z,2.50
2023-03-11T17:32:47.409Z,3.27
2023-03-11T17:35:16.308Z,4.03
2023-03-11T17:37:44.832Z,2.87
2023-03-11T17:40:13.078Z,4.07
2023-03-11T17:42:41.791Z,3.00
2023-03-11T17:45:10.256Z,3.57
2023-03-11T17:47:38.764Z,3.23
2023-03-11T17:50:06.980Z,3.77
2023-03-11T17:52:35.461Z,3.97
2023-03-11T17:55:03.810Z,4.73
2023-03-11T17:57:44.528Z,3.43
2023-03-11T18:00:04.088Z,4.20
2023-03-11T18:02:32.889Z,2.93
2023-03-11T18:05:00.770Z,2.83
2023-03-11T18:07:29.154Z,3.47
2023-03-11T18:09:57.605Z,3.50
2023-03-11T18:12:25.987Z,3.17
2023-03-11T18:14:54.570Z,4.03
2023-03-11T18:17:23.047Z,9.47
2023-03-11T18:19:51.423Z,5.17
2023-03-11T18:22:19.267Z,3.53
2023-03-11T18:24:47.775Z,3.47
2023-03-11T18:27:16.248Z,2.53
2023-03-11T18:29:45.119Z,2.17
2023-03-11T18:32:13.610Z,2.33
2023-03-11T18:34:42.414Z,3.63
2023-03-11T18:37:10.965Z,2.47
2023-03-11T18:39:39.529Z,2.73
2023-03-11T18:42:08.929Z,3.93
2023-03-11T18:44:37.081Z,2.27
2023-03-11T18:47:05.563Z,2.90
2023-03-11T18:49:34.065Z,1.67
2023-03-11T18:52:02.503Z,2.40
2023-03-11T18:54:31.127Z,1.87
2023-03-11T18:56:59.580Z,2.80
2023-03-11T18:59:28.378Z,3.67
2023-03-11T19:01:57.095Z,2.37
2023-03-11T19:04:25.568Z,4.57
2023-03-11T19:06:54.006Z,2.10
2023-03-11T19:09:22.481Z,2.73
2023-03-11T19:11:50.438Z,2.40
2023-03-11T19:14:18.827Z,4.57
2023-03-11T19:16:47.243Z,2.10
2023-03-11T19:19:15.834Z,2.33
2023-03-11T19:21:44.956Z,2.03
2023-03-11T19:24:13.628Z,1.70
2023-03-11T19:26:45.490Z,2.23
2023-03-11T19:29:12.595Z,4.00
2023-03-11T19:31:41.059Z,2.90
2023-03-11T19:34:09.480Z,3.80
2023-03-11T19:36:37.573Z,2.23
2023-03-11T19:39:06.030Z,2.83
2023-03-11T19:41:34.536Z,1.60
2023-03-11T19:44:04.195Z,1.57
2023-03-11T19:46:34.813Z,2.70
2023-03-11T19:49:04.406Z,3.37
2023-03-11T19:51:48.500Z,1.40
2023-03-11T19:54:02.949Z,2.23
2023-03-11T19:56:31.600Z,3.27
2023-03-11T19:58:59.544Z,1.60
2023-03-11T20:01:29.763Z,2.93
2023-03-11T20:03:58.540Z,3.00
2023-03-11T20:06:27.084Z,2.10
2023-03-11T20:08:55.942Z,1.97
2023-03-11T20:11:24.414Z,2.67
2023-03-11T20:13:52.798Z,2.80
2023-03-11T20:16:21.451Z,2.80
2023-03-11T20:18:50.850Z,1.87
2023-03-11T20:21:19.193Z,1.93
2023-03-11T20:23:50.054Z,4.90
2023-03-11T20:26:19.646Z,2.13
2023-03-11T20:28:48.449Z,2.37
2023-03-11T20:31:18.744Z,1.53
2023-03-11T20:33:47.458Z,4.00
2023-03-11T20:36:16.838Z,2.40
2023-03-11T20:38:45.781Z,1.33
2023-03-11T20:41:13.920Z,2.20
2023-03-11T20:43:42.655Z,2.47
2023-03-11T20:46:12.531Z,1.90
2023-03-11T20:48:41.100Z,3.97
2023-03-11T20:51:18.368Z,2.10
2023-03-11T20:53:47.502Z,4.83
2023-03-11T20:56:17.753Z,2.70
2023-03-11T20:58:47.438Z,2.57
2023-03-11T21:01:16.720Z,3.40
2023-03-11T21:03:45.969Z,4.73
2023-03-11T21:06:15.300Z,2.73
2023-03-11T21:08:43.745Z,1.90
2023-03-11T21:11:12.208Z,2.20
2023-03-11T21:13:40.977Z,2.43
2023-03-11T21:16:09.382Z,1.97
2023-03-11T21:18:38.290Z,2.30
2023-03-11T21:21:08.823Z,2.43
2023-03-11T21:23:37.248Z,3.63
2023-03-11T21:26:06.108Z,3.77
2023-03-11T21:28:35.525Z,3.37
2023-03-11T21:31:05.902Z,1.73
2023-03-11T21:33:34.587Z,3.10
2023-03-11T21:36:03.307Z,3.17
2023-03-11T21:38:32.621Z,3.03
2023-03-11T21:41:08.160Z,3.30
2023-03-11T21:43:37.127Z,2.47
2023-03-11T21:46:06.238Z,3.73
2023-03-11T21:48:34.772Z,2.83
2023-03-11T21:51:02.996Z,2.53
2023-03-11T21:53:32.406Z,2.90
2023-03-11T21:56:00.870Z,5.30
2023-03-11T21:58:29.554Z,3.87
2023-03-11T22:00:57.805Z,2.67
2023-03-11T22:03:26.323Z,3.60
2023-03-11T22:05:58.131Z,4.63
2023-03-11T22:08:26.652Z,2.13
2023-03-11T22:10:55.501Z,2.53
2023-03-11T22:13:24.649Z,2.43
2023-03-11T22:15:53.164Z,3.43
2023-03-11T22:18:21.562Z,4.40
2023-03-11T22:20:49.953Z,2.90
2023-03-11T22:23:18.313Z,2.60
2023-03-11T22:25:46.703Z,2.97
2023-03-11T22:28:15.481Z,3.10
2023-03-11T22:30:43.876Z,4.10
2023-03-11T22:33:12.351Z,2.73
2023-03-11T22:35:40.866Z,3.40
2023-03-11T22:38:09.308Z,2.80
2023-03-11T22:40:37.682Z,4.23
2023-03-11T22:43:05.497Z,2.93
2023-03-11T22:45:33.923Z,2.87
2023-03-11T22:48:02.230Z,4.87
2023-03-11T22:50:30.184Z,4.53
2023-03-11T22:52:58.129Z,5.13
2023-03-11T22:55:26.043Z,4.37
2023-03-11T22:57:53.867Z,3.83
2023-03-11T23:00:23.104Z,3.73
2023-03-11T23:02:56.006Z,4.20
2023-03-11T23:05:23.998Z,7.20
2023-03-11T23:07:52.418Z,4.83
2023-03-11T23:10:21.439Z,5.70
2023-03-11T23:12:50.641Z,4.70
2023-03-11T23:15:19.611Z,3.73
2023-03-11T23:17:47.875Z,7.40
2023-03-11T23:20:16.760Z,3.63
2023-03-11T23:22:45.239Z,3.97
2023-03-11T23:25:15.544Z,7.53
2023-03-11T23:27:44.745Z,6.80
2023-03-11T23:30:14.011Z,6.80
2023-03-11T23:32:42.505Z,4.93
2023-03-11T23:35:10.679Z,3.43
2023-03-11T23:37:39.126Z,5.33
2023-03-11T23:40:07.787Z,3.23
2023-03-11T23:42:35.694Z,6.27
2023-03-11T23:45:04.676Z,3.60
2023-03-11T23:47:32.768Z,5.53
2023-03-11T23:50:00.624Z,5.93
2023-03-11T23:52:28.469Z,3.73
2023-03-11T23:54:56.886Z,2.87
2023-03-11T23:57:25.223Z,3.50
2023-03-11T23:59:53.724Z,5.07
